Time;durP1;ratioP1;P1;durP2;ratioP2;P2;SDS_P1;SDS_P2;PMS_P1;PMS_P2;Temp;Humidity;BMP_temperature;BMP_pressure;BME280_temperature;BME280_humidity;BME280_pressure;Samples;Min_cycle;Max_cycle;Signal;HPM_P1;HPM_P2
2021/12/10 00:00:33;;;;;;;3.47;1.80;;;8.30;99.90;;;;;;5008397;28;20053;-87
2021/12/10 00:03:11;;;;;;;2.30;1.73;;;8.30;99.90;;;;;;5022056;28;20056;-86
2021/12/10 00:06:03;;;;;;;4.38;1.85;;;8.30;99.90;;;;;;5003816;28;20048;-86
2021/12/10 00:08:38;;;;;;;2.17;1.52;;;8.40;99.90;;;;;;4981724;28;20062;-88
2021/12/10 00:11:35;;;;;;;2.00;1.67;;;8.40;99.90;;;;;;5014341;28;20037;-89
2021/12/10 00:14:26;;;;;;;2.40;1.85;;;8.50;99.90;;;;;;4982757;28;20049;-89
2021/12/10 00:17:04;;;;;;;2.42;1.73;;;8.40;99.90;;;;;;4995377;28;20045;-90
2021/12/10 00:19:50;;;;;;;4.00;2.95;;;8.40;99.90;;;;;;4979895;28;20050;-89
2021/12/10 00:22:53;;;;;;;3.70;1.50;;;9.00;99.90;;;;;;4998669;28;20064;-89
2021/12/10 00:25:40;;;;;;;1.58;1.48;;;8.40;99.90;;;;;;5000511;28;20057;-88
2021/12/10 00:28:21;;;;;;;1.23;1.13;;;8.50;99.90;;;;;;5008348;28;20038;-90
2021/12/10 00:34:31;;;;;;;3.13;2.22;;;8.50;99.90;;;;;;4991094;28;20054;-90
2021/12/10 00:37:23;;;;;;;1.48;1.38;;;8.50;99.90;;;;;;4998239;28;20050;-91
2021/12/10 00:40:10;;;;;;;2.00;1.40;;;8.40;99.90;;;;;;4993948;28;20045;-91
2021/12/10 00:43:04;;;;;;;4.60;1.80;;;8.50;99.90;;;;;;4992089;28;20586;-90
2021/12/10 00:45:52;;;;;;;3.65;2.35;;;7.70;99.90;;;;;;4978397;28;20054;-92
2021/12/10 00:48:46;;;;;;;4.10;2.38;;;8.60;99.90;;;;;;4965744;28;20050;-91
2021/12/10 00:51:33;;;;;;;4.20;2.17;;;8.60;99.90;;;;;;4980426;28;20065;-91
2021/12/10 00:54:17;;;;;;;4.35;3.30;;;8.60;99.90;;;;;;4991246;28;20053;-91
2021/12/10 00:57:05;;;;;;;4.75;3.13;;;8.70;99.90;;;;;;4989327;28;20058;-92
2021/12/10 00:59:54;;;;;;;3.45;2.53;;;8.70;99.90;;;;;;4984656;28;20065;-92
2021/12/10 01:02:39;;;;;;;5.50;3.55;;;8.70;99.90;;;;;;5005869;28;20042;-90
2021/12/10 01:05:50;;;;;;;5.72;3.72;;;8.70;99.90;;;;;;4976225;28;20057;-90
2021/12/10 01:08:38;;;;;;;6.53;3.92;;;8.70;99.90;;;;;;5009758;28;20060;-91
2021/12/10 01:11:41;;;;;;;8.32;4.70;;;8.70;99.90;;;;;;4998687;28;20041;-91
2021/12/10 01:14:59;;;;;;;9.15;5.43;;;8.70;99.90;;;;;;4997564;28;20077;-90
2021/12/10 01:24:07;;;;;;;8.75;4.88;;;8.60;99.90;;;;;;5005405;28;19921;-91
2021/12/10 01:29:37;;;;;;;9.82;5.00;;;8.70;99.90;;;;;;4996722;28;20535;-89
2021/12/10 01:32:24;;;;;;;6.80;4.45;;;9.40;99.90;;;;;;4998368;28;20172;-90
2021/12/10 01:35:12;;;;;;;8.80;5.10;;;8.60;99.90;;;;;;5000371;28;20063;-90
2021/12/10 01:38:01;;;;;;;8.23;4.60;;;8.60;99.90;;;;;;4998953;28;20053;-90
2021/12/10 01:40:48;;;;;;;9.07;5.38;;;8.60;99.90;;;;;;5033243;28;20076;-90
2021/12/10 01:43:36;;;;;;;12.30;4.63;;;8.50;99.90;;;;;;5022878;28;20064;-90
2021/12/10 01:47:10;;;;;;;10.65;4.97;;;8.50;99.90;;;;;;5008563;28;20053;-91
2021/12/10 01:49:55;;;;;;;13.30;6.93;;;8.50;99.90;;;;;;5045723;23;20042;-91
2021/12/10 01:52:29;;;;;;;10.18;4.55;;;8.50;99.90;;;;;;5031428;28;20048;-91
2021/12/10 01:55:19;;;;;;;10.25;5.95;;;8.40;99.90;;;;;;5116070;23;20042;-91
2021/12/10 01:58:09;;;;;;;8.82;5.22;;;8.40;99.90;;;;;;5033460;23;20064;-90
2021/12/10 02:01:07;;;;;;;10.00;5.07;;;8.40;99.90;;;;;;5044052;23;20072;-91
2021/12/10 02:04:53;;;;;;;7.35;4.38;;;8.40;99.90;;;;;;5039507;28;20057;-90
2021/12/10 02:07:43;;;;;;;13.75;5.72;;;8.40;99.90;;;;;;5023811;28;20032;-92
2021/12/10 02:11:00;;;;;;;9.05;4.60;;;8.40;99.90;;;;;;5024766;28;20032;-91
2021/12/10 02:13:37;;;;;;;10.30;5.50;;;8.30;99.90;;;;;;5025919;28;20048;-91
2021/12/10 02:16:56;;;;;;;9.32;6.32;;;8.40;99.90;;;;;;5011799;28;20049;-92
2021/12/10 02:19:32;;;;;;;9.18;4.20;;;8.70;99.90;;;;;;5024784;28;20044;-92
2021/12/10 02:22:47;;;;;;;6.07;3.83;;;8.30;99.90;;;;;;5026920;28;20036;-93
2021/12/10 02:26:39;;;;;;;12.50;4.63;;;8.20;99.90;;;;;;5027732;28;20037;-92
2021/12/10 02:29:34;;;;;;;9.90;4.30;;;9.10;99.90;;;;;;5037032;28;20034;-91
2021/12/10 02:32:53;;;;;;;10.63;4.53;;;8.10;99.90;;;;;;5009548;28;20061;-92
2021/12/10 02:39:16;;;;;;;3.88;2.75;;;8.00;99.90;;;;;;5111078;23;20042;-94
2021/12/10 02:42:14;;;;;;;4.55;2.95;;;8.10;99.90;;;;;;5002899;28;20637;-92
2021/12/10 02:45:08;;;;;;;3.55;2.85;;;8.00;99.90;;;;;;5013170;28;20050;-93
2021/12/10 02:52:55;;;;;;;7.80;2.72;;;8.20;99.90;;;;;;5029839;28;20410;-94
2021/12/10 02:56:38;;;;;;;4.85;2.92;;;7.90;99.90;;;;;;5011985;28;20058;-92
2021/12/10 03:00:14;;;;;;;5.50;2.10;;;7.90;99.90;;;;;;5023970;28;20033;-91
2021/12/10 03:07:58;;;;;;;2.40;1.48;;;8.20;99.90;;;;;;5039219;28;20045;-92
2021/12/10 03:11:20;;;;;;;3.65;2.03;;;7.20;99.90;;;;;;5005686;28;20065;-92
2021/12/10 03:14:15;;;;;;;4.45;2.92;;;7.80;99.90;;;;;;5008836;28;20037;-92
2021/12/10 03:17:14;;;;;;;2.78;2.00;;;7.70;99.90;;;;;;5012707;28;20045;-93
2021/12/10 03:20:14;;;;;;;3.85;2.00;;;7.80;99.90;;;;;;4951276;28;20034;-93
2021/12/10 03:23:02;;;;;;;6.97;2.20;;;7.70;99.90;;;;;;4992152;28;20158;-92
2021/12/10 03:25:49;;;;;;;7.75;2.88;;;7.70;99.90;;;;;;4929161;28;20046;-94
2021/12/10 03:28:34;;;;;;;20.00;3.83;;;7.60;99.90;;;;;;4940562;28;20050;-91
2021/12/10 03:31:35;;;;;;;7.28;3.70;;;7.70;99.90;;;;;;4939323;29;20503;-93
2021/12/10 03:34:20;;;;;;;8.50;3.58;;;7.50;99.90;;;;;;4952053;29;20056;-93
2021/12/10 03:37:06;;;;;;;12.73;7.07;;;7.50;99.90;;;;;;4937323;29;20043;-94
2021/12/10 03:39:54;;;;;;;9.32;3.75;;;7.70;99.90;;;;;;4924169;29;20047;-94
2021/12/10 03:42:58;;;;;;;8.32;2.83;;;7.50;99.90;;;;;;4953784;29;20050;-91
2021/12/10 03:45:46;;;;;;;13.02;3.28;;;7.30;99.90;;;;;;4939542;29;20136;-93
2021/12/10 03:48:40;;;;;;;10.40;3.20;;;7.30;99.90;;;;;;4946882;29;20135;-92
2021/12/10 03:51:33;;;;;;;10.18;2.72;;;6.40;99.90;;;;;;4965462;29;20039;-93
2021/12/10 03:54:41;;;;;;;10.10;2.85;;;7.30;99.90;;;;;;4989647;28;20055;-91
2021/12/10 03:57:30;;;;;;;12.10;4.22;;;7.40;99.90;;;;;;4953505;29;20055;-93
2021/12/10 04:00:23;;;;;;;13.85;3.58;;;7.30;99.90;;;;;;4955023;29;20051;-93
2021/12/10 04:03:17;;;;;;;14.88;4.20;;;7.30;99.90;;;;;;4951313;29;20054;-92
2021/12/10 04:06:45;;;;;;;10.55;3.58;;;7.30;99.90;;;;;;4972957;29;20059;-94
2021/12/10 04:09:37;;;;;;;;;;;7.20;99.90;;;;;;4966965;29;20049;-92
2021/12/10 04:12:39;;;;;;;15.65;5.47;;;7.40;99.90;;;;;;4953590;29;19918;-92
2021/12/10 04:15:35;;;;;;;15.88;4.95;;;7.30;99.90;;;;;;4972531;29;20041;-94
2021/12/10 04:18:49;;;;;;;12.45;3.42;;;7.40;99.90;;;;;;4945610;28;20062;-93
2021/12/10 04:21:57;;;;;;;11.10;4.10;;;7.40;99.90;;;;;;4959710;28;20054;-94
2021/12/10 04:24:52;;;;;;;13.57;5.25;;;7.30;99.90;;;;;;4979568;28;20042;-93
2021/12/10 04:27:42;;;;;;;19.60;5.20;;;7.30;99.90;;;;;;4945471;28;20073;-93
2021/12/10 04:30:37;;;;;;;12.35;4.45;;;7.30;99.90;;;;;;4988046;28;20058;-93
2021/12/10 04:33:26;;;;;;;16.85;5.47;;;7.30;99.90;;;;;;4993863;28;20063;-92
2021/12/10 04:36:32;;;;;;;13.40;5.03;;;7.30;99.90;;;;;;4973285;28;20053;-93
2021/12/10 04:39:23;;;;;;;29.92;5.65;;;7.30;99.90;;;;;;4934192;28;20063;-92
2021/12/10 04:42:12;;;;;;;13.63;5.22;;;7.30;99.90;;;;;;4965113;28;20050;-92
2021/12/10 04:45:05;;;;;;;8.65;3.63;;;7.30;99.90;;;;;;4962588;28;20053;-92
2021/12/10 04:47:55;;;;;;;13.70;4.20;;;7.30;99.90;;;;;;4961323;28;20536;-93
2021/12/10 04:51:17;;;;;;;13.23;3.63;;;7.30;99.90;;;;;;4962593;29;20051;-93
2021/12/10 04:54:06;;;;;;;10.07;3.22;;;7.60;99.90;;;;;;4947439;29;20051;-91
2021/12/10 04:56:43;;;;;;;16.52;4.57;;;7.20;99.90;;;;;;4972129;28;20055;-92
2021/12/10 04:59:34;;;;;;;13.82;4.70;;;7.20;99.90;;;;;;4964566;28;20467;-94
2021/12/10 05:02:22;;;;;;;21.50;4.18;;;7.20;99.90;;;;;;4990247;28;20061;-92
2021/12/10 05:05:12;;;;;;;12.27;5.82;;;7.20;99.90;;;;;;4991061;28;20057;-93
2021/12/10 05:07:59;;;;;;;11.45;3.60;;;7.20;99.90;;;;;;4979369;28;20046;-93
2021/12/10 05:11:05;;;;;;;16.00;4.50;;;7.20;99.90;;;;;;4961921;29;20065;-92
2021/12/10 05:14:05;;;;;;;21.02;4.53;;;7.20;99.90;;;;;;4931162;29;20078;-93
2021/12/10 05:16:58;;;;;;;13.93;4.15;;;7.20;99.90;;;;;;4979244;28;20034;-93
2021/12/10 05:19:47;;;;;;;14.48;4.20;;;7.20;99.90;;;;;;5002856;28;20038;-92
2021/12/10 05:22:36;;;;;;;19.20;5.22;;;7.10;99.90;;;;;;4958337;28;20030;-93
2021/12/10 05:26:20;;;;;;;11.23;4.20;;;7.10;99.90;;;;;;4965695;28;20065;-93
2021/12/10 05:29:11;;;;;;;10.10;3.28;;;6.60;99.90;;;;;;4937264;28;20054;-92
2021/12/10 05:32:23;;;;;;;34.58;4.53;;;7.10;99.90;;;;;;4986074;28;20050;-92
2021/12/10 05:35:40;;;;;;;20.27;4.30;;;7.10;99.90;;;;;;4983529;28;20062;-93
2021/12/10 05:38:49;;;;;;;26.15;7.47;;;7.00;99.90;;;;;;4987184;28;20054;-92
2021/12/10 05:42:07;;;;;;;10.88;3.72;;;7.00;99.90;;;;;;4989498;28;20053;-93
2021/12/10 05:45:19;;;;;;;18.10;4.70;;;7.00;99.90;;;;;;5015400;28;20398;-92
2021/12/10 05:48:12;;;;;;;15.43;3.63;;;7.00;99.90;;;;;;4984708;28;20037;-92
2021/12/10 05:51:16;;;;;;;7.32;2.65;;;6.90;99.90;;;;;;4962956;28;20053;-93
2021/12/10 05:54:03;;;;;;;8.98;3.13;;;6.90;99.90;;;;;;4951947;28;20054;-92
2021/12/10 05:57:27;;;;;;;6.13;2.22;;;6.80;99.90;;;;;;4977292;28;20039;-93
2021/12/10 06:00:48;;;;;;;13.80;4.18;;;7.00;99.90;;;;;;4981804;28;20055;-93
2021/12/10 06:03:25;;;;;;;13.27;3.42;;;6.90;99.90;;;;;;4955859;28;20053;-93
2021/12/10 06:07:59;;;;;;;15.23;5.13;;;6.90;99.90;;;;;;4989866;28;20061;-95
2021/12/10 06:11:19;;;;;;;13.82;3.92;;;6.70;99.90;;;;;;4976029;28;20047;-91
2021/12/10 06:14:21;;;;;;;18.48;4.68;;;6.70;99.90;;;;;;4985286;28;20066;-92
2021/12/10 06:17:19;;;;;;;6.00;2.65;;;6.70;99.90;;;;;;4969916;28;20057;-91
2021/12/10 06:39:19;;;;;;;8.75;3.05;;;6.50;99.90;;;;;;3078674;22;20840;31
2021/12/10 07:05:29;;;;;;;6.32;2.53;;;6.10;99.90;;;;;;4963388;23;20051;-90
2021/12/10 07:08:53;;;;;;;11.07;3.97;;;6.40;99.90;;;;;;4968164;23;20048;-91
2021/12/10 07:12:19;;;;;;;13.15;3.85;;;6.10;99.90;;;;;;4892178;29;20073;-89
2021/12/10 07:15:23;;;;;;;18.83;4.30;;;6.10;99.90;;;;;;4869850;29;20042;-91
2021/12/10 07:19:02;;;;;;;9.02;3.33;;;5.90;99.90;;;;;;4864089;29;20045;-90
2021/12/10 07:26:35;;;;;;;10.25;3.13;;;6.00;99.90;;;;;;4873168;29;20044;-89
2021/12/10 07:33:33;;;;;;;6.63;2.30;;;5.90;99.90;;;;;;4855060;29;20054;-89
2021/12/10 07:39:59;;;;;;;10.10;2.83;;;5.90;99.90;;;;;;2982665;23;20333;-88
2021/12/10 07:43:21;;;;;;;8.63;3.50;;;5.80;99.90;;;;;;4931858;29;20058;-90
2021/12/10 07:46:14;;;;;;;6.07;2.83;;;5.80;99.90;;;;;;4900590;29;20054;-88
2021/12/10 07:48:45;;;;;;;7.05;3.35;;;5.80;99.90;;;;;;4916459;29;20032;-89
2021/12/10 07:51:27;;;;;;;14.98;4.18;;;5.80;99.90;;;;;;4908201;29;20031;-86
2021/12/10 07:53:59;;;;;;;7.15;4.18;;;5.70;99.90;;;;;;4924593;29;20063;-87
2021/12/10 07:56:34;;;;;;;9.60;3.33;;;5.70;99.90;;;;;;4896421;29;20052;-89
2021/12/10 07:59:10;;;;;;;9.13;2.40;;;5.70;99.90;;;;;;4926438;29;20046;-88
2021/12/10 08:01:45;;;;;;;6.60;2.80;;;5.60;99.90;;;;;;4918439;29;20380;-87
2021/12/10 08:04:26;;;;;;;15.07;3.53;;;5.60;99.90;;;;;;4929369;29;20057;-85
2021/12/10 08:07:02;;;;;;;8.75;3.47;;;5.60;99.90;;;;;;4910673;29;20059;-86
2021/12/10 08:09:37;;;;;;;6.88;3.05;;;5.60;99.90;;;;;;4932531;29;20052;-86
2021/12/10 08:12:11;;;;;;;13.27;3.50;;;6.90;99.90;;;;;;4934330;29;20047;-86
2021/12/10 08:14:46;;;;;;;8.27;4.53;;;5.60;99.90;;;;;;4905186;29;20052;-89
2021/12/10 08:17:32;;;;;;;9.88;4.53;;;5.50;99.90;;;;;;4904904;29;20047;-88
2021/12/10 08:20:19;;;;;;;12.07;3.55;;;5.50;99.90;;;;;;4930915;29;20059;-88
2021/12/10 08:22:59;;;;;;;19.70;3.90;;;5.50;99.90;;;;;;4953651;23;20044;-86
2021/12/10 08:25:49;;;;;;;10.60;2.72;;;5.50;99.90;;;;;;4936817;29;20308;-89
2021/12/10 08:28:45;;;;;;;9.95;3.80;;;5.50;99.90;;;;;;4922234;29;20059;-89
2021/12/10 08:31:31;;;;;;;8.27;2.95;;;5.10;99.90;;;;;;4891959;29;20060;-90
2021/12/10 08:34:22;;;;;;;8.63;2.38;;;5.40;99.90;;;;;;4880890;29;20409;-89
2021/12/10 08:37:00;;;;;;;17.67;4.05;;;5.40;99.90;;;;;;4913355;29;20039;-91
2021/12/10 08:40:27;;;;;;;8.18;2.30;;;7.40;99.90;;;;;;4922148;29;20044;-88
2021/12/10 08:43:04;;;;;;;10.23;2.72;;;5.60;99.90;;;;;;4965413;23;20436;-88
2021/12/10 08:46:01;;;;;;;8.43;4.03;;;5.40;99.90;;;;;;4902663;29;20048;-88
2021/12/10 08:48:36;;;;;;;6.22;3.03;;;5.40;99.90;;;;;;4903085;29;20048;-88
2021/12/10 08:51:25;;;;;;;8.63;4.93;;;6.10;99.90;;;;;;4911584;29;20052;-87
2021/12/10 08:54:05;;;;;;;10.30;3.35;;;5.40;99.90;;;;;;4876908;29;20079;-89
2021/12/10 08:57:00;;;;;;;6.40;3.50;;;5.40;99.90;;;;;;4899691;29;20055;-89
2021/12/10 09:00:01;;;;;;;11.13;2.50;;;5.60;99.90;;;;;;4907797;29;20571;-87
2021/12/10 09:02:53;;;;;;;9.32;2.90;;;5.60;99.90;;;;;;4933233;29;20032;-88
2021/12/10 09:05:36;;;;;;;8.65;2.90;;;5.40;99.90;;;;;;4906504;29;20039;-87
2021/12/10 09:08:06;;;;;;;7.45;3.63;;;5.50;99.90;;;;;;4890141;29;20036;-88
2021/12/10 09:10:48;;;;;;;10.10;3.05;;;6.10;99.90;;;;;;4917160;29;20133;-89
2021/12/10 09:13:20;;;;;;;20.50;3.60;;;6.40;99.90;;;;;;4908683;29;20056;-87
2021/12/10 09:16:02;;;;;;;14.75;3.92;;;6.80;99.90;;;;;;4888626;29;20082;-89
2021/12/10 09:18:45;;;;;;;4.93;2.63;;;5.60;99.90;;;;;;4924571;29;20349;-88
2021/12/10 09:21:19;;;;;;;14.00;2.83;;;5.80;99.90;;;;;;4891209;29;20052;-89
2021/12/10 09:24:06;;;;;;;10.38;3.25;;;5.60;99.90;;;;;;4889870;29;20055;-87
2021/12/10 09:26:39;;;;;;;18.88;4.78;;;5.60;99.90;;;;;;4909192;29;20052;-88
2021/12/10 09:29:15;;;;;;;4.93;3.10;;;5.70;99.90;;;;;;4894416;29;20056;-88
2021/12/10 09:31:45;;;;;;;21.30;7.15;;;5.60;99.90;;;;;;4892688;29;20067;-88
2021/12/10 09:34:21;;;;;;;8.93;2.97;;;5.70;99.90;;;;;;4892384;29;20932;-90
2021/12/10 09:36:54;;;;;;;9.82;3.83;;;5.70;99.90;;;;;;4895614;29;20066;-88
2021/12/10 09:39:53;;;;;;;15.38;3.78;;;5.70;99.90;;;;;;4901511;29;20052;-89
2021/12/10 09:42:38;;;;;;;12.02;4.18;;;5.70;99.90;;;;;;4881442;29;20617;-87
2021/12/10 09:45:14;;;;;;;11.88;3.35;;;7.10;99.90;;;;;;4915040;29;20059;-88
2021/12/10 09:47:43;;;;;;;11.07;5.28;;;5.80;99.90;;;;;;5001834;23;20136;-87
2021/12/10 09:50:16;;;;;;;11.75;3.47;;;5.80;99.90;;;;;;4914241;29;20043;-87
2021/12/10 09:52:46;;;;;;;10.82;3.67;;;5.80;99.90;;;;;;4898741;29;20059;-88
2021/12/10 09:55:16;;;;;;;20.00;4.95;;;5.90;99.90;;;;;;4902136;29;20032;-90
2021/12/10 09:58:17;;;;;;;8.02;2.38;;;5.90;99.90;;;;;;4927845;29;20068;-88
2021/12/10 10:01:07;;;;;;;12.45;2.88;;;6.20;99.90;;;;;;4923679;29;20066;-88
2021/12/10 10:04:06;;;;;;;3.78;2.17;;;5.90;99.90;;;;;;4921391;29;20052;-89
2021/12/10 10:06:48;;;;;;;11.85;3.28;;;5.90;99.90;;;;;;4919465;29;20055;-90
2021/12/10 10:09:27;;;;;;;12.73;3.75;;;5.90;99.90;;;;;;4918103;29;20044;-88
2021/12/10 10:12:18;;;;;;;11.75;3.25;;;5.90;99.90;;;;;;4917578;29;20488;-87
2021/12/10 10:14:54;;;;;;;12.02;4.13;;;5.90;99.90;;;;;;4908032;29;20044;-88
2021/12/10 10:17:56;;;;;;;8.70;3.25;;;5.90;99.90;;;;;;4921322;29;20051;-89
2021/12/10 10:20:38;;;;;;;18.98;3.75;;;5.90;99.90;;;;;;4909318;29;20065;-91
2021/12/10 10:23:09;;;;;;;7.38;3.50;;;6.00;99.90;;;;;;4909696;28;20063;-91
2021/12/10 10:26:03;;;;;;;11.30;4.05;;;6.00;99.90;;;;;;4942436;28;20058;-90
2021/12/10 10:32:33;;;;;;;6.05;2.78;;;6.10;99.90;;;;;;4931912;29;20052;-89
2021/12/10 10:39:19;;;;;;;9.63;3.65;;;6.10;99.90;;;;;;4946525;23;20060;-89
2021/12/10 10:42:16;;;;;;;8.60;3.33;;;6.20;99.90;;;;;;4902366;29;20075;-89
2021/12/10 10:45:17;;;;;;;16.02;4.65;;;6.20;99.90;;;;;;4902793;29;20056;-91
2021/12/10 10:48:05;;;;;;;8.48;3.60;;;6.20;99.90;;;;;;4879233;29;20045;-90
2021/12/10 10:51:23;;;;;;;18.20;3.28;;;6.90;99.90;;;;;;4899247;29;20044;-91
2021/12/10 10:54:29;;;;;;;4.65;2.85;;;6.30;99.90;;;;;;4897912;29;20041;-90
2021/12/10 10:57:26;;;;;;;15.23;3.42;;;6.40;99.90;;;;;;4911474;29;20056;-90
2021/12/10 11:00:32;;;;;;;18.38;4.05;;;6.50;99.90;;;;;;4887225;29;20044;-91
2021/12/10 11:03:23;;;;;;;7.32;2.22;;;6.50;99.90;;;;;;4878913;29;20044;-88
2021/12/10 11:06:26;;;;;;;8.15;2.70;;;6.60;99.90;;;;;;4882186;29;20039;-90
2021/12/10 11:09:33;;;;;;;14.70;4.28;;;6.70;99.90;;;;;;4894699;29;20053;-91
2021/12/10 11:12:11;;;;;;;13.02;3.35;;;6.60;99.90;;;;;;4893997;29;20062;-91
2021/12/10 11:14:50;;;;;;;14.82;5.68;;;6.40;99.90;;;;;;4911194;29;20048;-91
2021/12/10 11:20:44;;;;;;;12.02;2.92;;;6.80;99.90;;;;;;4962784;23;20089;-91
2021/12/10 11:35:22;;;;;;;10.77;2.97;;;6.80;99.90;;;;;;5811351;23;20030;-90
2021/12/10 11:46:05;;;;;;;5.13;3.03;;;6.90;99.90;;;;;;4878817;29;20060;-89
2021/12/10 11:49:27;;;;;;;11.50;2.90;;;7.00;99.90;;;;;;4893258;29;20059;-91
2021/12/10 11:52:23;;;;;;;9.93;2.70;;;6.90;99.90;;;;;;4895510;29;20063;-90
2021/12/10 11:56:05;;;;;;;20.55;4.07;;;7.00;99.90;;;;;;4886123;29;20045;-90
2021/12/10 11:58:42;;;;;;;7.10;2.75;;;5.90;99.90;;;;;;4863677;29;20060;-90
2021/12/10 12:01:51;;;;;;;15.77;2.67;;;7.10;99.90;;;;;;4860418;29;20045;-88
2021/12/10 12:04:46;;;;;;;13.40;5.70;;;7.30;99.90;;;;;;4877614;29;20049;-91
2021/12/10 12:07:35;;;;;;;9.80;3.92;;;7.30;99.90;;;;;;4878824;29;20063;-91
2021/12/10 12:10:49;;;;;;;12.55;2.28;;;7.20;99.90;;;;;;4893566;29;20049;-89
2021/12/10 12:13:56;;;;;;;7.53;3.42;;;7.30;99.90;;;;;;4870254;29;20087;-89
2021/12/10 12:17:07;;;;;;;10.63;3.20;;;7.00;99.90;;;;;;4893660;29;20488;-90
2021/12/10 12:19:41;;;;;;;13.93;3.90;;;7.30;99.90;;;;;;4879473;29;20064;-91
2021/12/10 12:26:05;;;;;;;13.30;3.35;;;6.60;99.90;;;;;;4865063;29;20620;-90
2021/12/10 12:29:13;;;;;;;9.88;2.90;;;7.30;99.90;;;;;;4841262;29;20365;-90
2021/12/10 12:31:59;;;;;;;9.40;3.00;;;7.20;99.90;;;;;;4873538;29;20049;-90
2021/12/10 12:34:44;;;;;;;4.18;2.45;;;7.30;99.90;;;;;;4884377;29;20513;-89
2021/12/10 12:37:17;;;;;;;8.55;2.72;;;6.70;99.90;;;;;;4888334;29;20480;-89
2021/12/10 12:40:12;;;;;;;15.57;4.05;;;8.60;99.90;;;;;;4882783;29;20496;-90
2021/12/10 12:43:04;;;;;;;8.65;2.40;;;7.30;99.90;;;;;;4876406;29;20057;-91
2021/12/10 12:45:52;;;;;;;7.13;3.35;;;7.40;99.90;;;;;;4892337;29;20053;-90
2021/12/10 12:49:24;;;;;;;11.82;3.53;;;7.40;99.90;;;;;;4881467;29;20063;-90
2021/12/10 12:52:14;;;;;;;10.10;3.55;;;7.70;99.90;;;;;;4903423;29;20037;-90
2021/12/10 12:55:29;;;;;;;7.28;3.13;;;7.40;99.90;;;;;;4869786;29;20292;-91
2021/12/10 12:58:25;;;;;;;9.35;3.75;;;7.40;99.90;;;;;;4884269;29;20049;-90
2021/12/10 13:01:20;;;;;;;9.75;2.38;;;7.30;99.90;;;;;;4896105;29;20057;-90
2021/12/10 13:04:02;;;;;;;5.82;2.10;;;8.30;99.90;;;;;;4893548;29;20519;-89
2021/12/10 13:07:00;;;;;;;7.90;2.65;;;7.30;99.90;;;;;;4894370;29;20072;-88
2021/12/10 13:09:45;;;;;;;9.88;2.60;;;7.20;99.90;;;;;;4878834;29;20053;-87
2021/12/10 13:12:40;;;;;;;7.60;3.42;;;8.00;99.90;;;;;;4876677;29;20052;-88
2021/12/10 13:15:23;;;;;;;7.20;2.25;;;7.20;99.90;;;;;;4876594;29;20432;-87
2021/12/10 13:17:57;;;;;;;5.85;2.67;;;7.30;99.90;;;;;;4878594;29;20064;-87
2021/12/10 13:20:51;;;;;;;7.47;2.47;;;7.30;99.90;;;;;;4873586;29;20509;-89
2021/12/10 13:23:26;;;;;;;10.90;2.80;;;7.40;99.90;;;;;;4891887;29;20056;-88
2021/12/10 13:26:00;;;;;;;10.15;3.20;;;7.40;99.90;;;;;;4892348;29;20045;-86
2021/12/10 13:28:29;;;;;;;9.90;2.08;;;7.40;99.90;;;;;;4877800;29;20056;-87
2021/12/10 13:31:04;;;;;;;12.15;2.88;;;7.40;99.90;;;;;;4876337;29;20075;-87
2021/12/10 13:33:43;;;;;;;7.10;2.78;;;6.10;99.90;;;;;;4908017;29;20055;-87
2021/12/10 13:36:15;;;;;;;15.63;3.17;;;7.30;99.90;;;;;;4878219;29;20067;-86
2021/12/10 13:39:16;;;;;;;9.73;2.47;;;7.40;99.90;;;;;;4883669;29;20059;-88
2021/12/10 13:42:38;;;;;;;14.55;3.75;;;7.40;99.90;;;;;;4899178;29;20059;-88
2021/12/10 13:45:09;;;;;;;5.07;3.47;;;7.80;99.90;;;;;;4875310;29;20057;-85
2021/12/10 13:47:50;;;;;;;6.43;2.15;;;7.50;99.90;;;;;;4894027;29;20045;-89
2021/12/10 13:50:53;;;;;;;12.85;3.65;;;7.50;99.90;;;;;;4891401;29;20057;-87
2021/12/10 13:53:30;;;;;;;8.70;2.85;;;7.50;99.90;;;;;;4899502;29;20056;-89
2021/12/10 13:56:09;;;;;;;6.82;2.85;;;7.60;99.90;;;;;;4891887;29;20056;-86
2021/12/10 13:58:43;;;;;;;17.40;3.03;;;7.70;99.90;;;;;;4907275;29;20059;-88
2021/12/10 14:01:31;;;;;;;8.52;2.65;;;7.60;99.90;;;;;;4896463;29;20059;-88
2021/12/10 14:04:25;;;;;;;13.38;3.63;;;7.50;99.90;;;;;;4891924;29;20424;-87
2021/12/10 14:07:08;;;;;;;12.23;3.67;;;7.70;99.90;;;;;;4891606;29;20049;-89
2021/12/10 14:09:48;;;;;;;9.55;3.63;;;7.70;99.90;;;;;;4893546;29;20053;-86
2021/12/10 14:12:38;;;;;;;5.47;2.17;;;8.00;99.90;;;;;;4887694;29;20061;-82
2021/12/10 14:15:11;;;;;;;10.30;2.38;;;7.70;99.90;;;;;;4900702;29;20057;-84
2021/12/10 14:18:01;;;;;;;5.57;2.65;;;7.70;99.90;;;;;;4902052;29;20063;-80
2021/12/10 14:21:01;;;;;;;7.85;2.70;;;7.70;99.90;;;;;;4899838;29;20048;-84
2021/12/10 14:24:00;;;;;;;4.82;2.63;;;8.20;99.90;;;;;;4900608;29;20064;-81
2021/12/10 14:27:08;;;;;;;4.93;3.00;;;7.70;99.90;;;;;;4899088;29;20048;-80
2021/12/10 14:30:15;;;;;;;7.35;3.03;;;7.60;99.90;;;;;;4557984;29;10000385;-84
2021/12/10 14:33:03;;;;;;;6.38;1.85;;;7.60;99.90;;;;;;4564490;29;9999752;-80
2021/12/10 14:35:52;;;;;;;11.82;3.92;;;7.60;99.90;;;;;;4904329;29;20044;-80
2021/12/10 14:38:46;;;;;;;11.35;3.13;;;7.60;99.90;;;;;;4903906;29;20053;-80
2021/12/10 14:41:40;;;;;;;12.60;3.20;;;7.50;99.90;;;;;;4900628;29;20037;-80
2021/12/10 14:44:28;;;;;;;11.25;2.50;;;7.50;99.90;;;;;;4893057;29;20067;-80
2021/12/10 14:47:23;;;;;;;6.30;2.97;;;7.50;99.90;;;;;;4888198;29;20056;-81
2021/12/10 14:50:17;;;;;;;4.95;2.38;;;8.40;99.90;;;;;;4888698;29;20049;-81
2021/12/10 14:53:28;;;;;;;15.43;3.87;;;7.50;99.90;;;;;;4888277;29;20055;-80
2021/12/10 15:04:50;;;;;;;9.65;3.83;;;7.50;99.90;;;;;;4934866;29;20044;-91
2021/12/10 15:08:22;;;;;;;4.90;2.30;;;7.50;99.90;;;;;;4919407;29;20060;-91
2021/12/10 15:25:22;;;;;;;4.55;2.65;;;7.30;99.90;;;;;;5607953;23;20018;31
2021/12/10 15:28:59;;;;;;;10.00;4.07;;;7.30;99.90;;;;;;5148900;23;20133;31
2021/12/10 15:56:06;;;;;;;4.25;2.50;;;6.90;99.90;;;;;;3934151;23;20107;-91
2021/12/10 15:59:00;;;;;;;4.22;2.15;;;6.90;99.90;;;;;;4920618;29;20048;-88
2021/12/10 16:05:44;;;;;;;4.40;2.70;;;8.10;99.90;;;;;;5533694;23;20018;31
2021/12/10 16:16:49;;;;;;;11.20;2.67;;;6.80;99.90;;;;;;5993034;23;20720;-90
2021/12/10 16:20:27;;;;;;;6.85;2.88;;;6.70;99.90;;;;;;4928676;29;20048;-91
2021/12/10 16:24:14;;;;;;;3.80;2.75;;;7.00;99.90;;;;;;4909907;29;20049;-90
2021/12/10 16:34:55;;;;;;;7.03;2.60;;;6.80;99.90;;;;;;5320862;23;19922;-90
2021/12/10 16:38:42;;;;;;;;;;;;;;;;;;;;;
2021/12/10 16:47:15;;;;;;;9.48;2.88;;;7.70;99.90;;;;;;4940759;29;20044;-91
2021/12/10 16:51:32;;;;;;;7.88;2.95;;;6.80;99.90;;;;;;5234620;23;20027;-90
2021/12/10 17:19:41;;;;;;;5.95;3.42;;;8.90;99.90;;;;;;5294675;23;20075;-92
2021/12/10 17:22:34;;;;;;;11.38;3.85;;;6.60;99.90;;;;;;5487888;23;20040;-91
2021/12/10 17:26:24;;;;;;;12.35;5.90;;;7.80;99.90;;;;;;4990604;23;20040;-92
2021/12/10 18:00:48;;;;;;;16.67;3.70;;;6.40;99.90;;;;;;4945693;23;20032;-92
2021/12/10 18:04:26;;;;;;;9.82;2.70;;;5.60;99.90;;;;;;4903059;29;20064;-92
2021/12/10 18:07:23;;;;;;;6.45;3.38;;;6.70;99.90;;;;;;4905394;29;20037;-92
2021/12/10 18:14:09;;;;;;;10.90;3.40;;;6.70;99.90;;;;;;5044718;23;20059;-90
2021/12/10 18:17:14;;;;;;;11.35;3.53;;;6.20;99.90;;;;;;4906665;29;20047;-92
2021/12/10 18:20:36;;;;;;;14.23;4.75;;;7.00;99.90;;;;;;4932040;29;20051;-92
2021/12/10 18:23:44;;;;;;;11.57;3.53;;;6.20;99.90;;;;;;4929532;29;20094;-90
2021/12/10 18:27:03;;;;;;;9.52;3.20;;;6.50;99.90;;;;;;4898716;29;20048;-92
2021/12/10 18:29:46;;;;;;;10.48;3.80;;;6.20;99.90;;;;;;4891536;29;20032;-91
2021/12/10 18:32:31;;;;;;;11.37;5.60;;;6.10;99.90;;;;;;4913614;29;20067;-90
2021/12/10 18:35:11;;;;;;;13.10;5.95;;;6.10;99.90;;;;;;4894337;29;21071;-91
2021/12/10 18:37:46;;;;;;;15.27;4.28;;;6.00;99.90;;;;;;4923985;29;20052;-90
2021/12/10 18:40:43;;;;;;;9.23;3.53;;;6.30;99.90;;;;;;4909829;29;20052;-90
2021/12/10 18:43:56;;;;;;;;;;;;;;;;;;;;;
2021/12/10 18:46:38;;;;;;;12.82;4.22;;;5.90;99.90;;;;;;4898901;29;20032;-90
2021/12/10 18:49:09;;;;;;;13.52;4.28;;;6.80;99.90;;;;;;4924654;29;20066;-90
2021/12/10 18:52:03;;;;;;;9.90;4.78;;;5.90;99.90;;;;;;4907031;29;20047;-91
2021/12/10 18:55:01;;;;;;;12.15;4.15;;;5.80;99.90;;;;;;4896111;29;20063;-90
2021/12/10 18:57:46;;;;;;;20.50;4.97;;;5.90;99.90;;;;;;4881723;29;20052;-89
2021/12/10 19:00:38;;;;;;;12.43;3.85;;;5.80;99.90;;;;;;4891456;29;20059;-91
2021/12/10 19:03:15;;;;;;;15.48;5.90;;;5.70;99.90;;;;;;4875514;29;20056;-88
2021/12/10 19:06:01;;;;;;;7.80;3.70;;;5.70;99.90;;;;;;4882141;29;20052;-89
2021/12/10 19:08:39;;;;;;;11.20;3.97;;;5.70;99.90;;;;;;4880358;29;20063;-89
2021/12/10 19:11:21;;;;;;;13.50;3.85;;;5.60;99.90;;;;;;4904435;29;20048;-88
2021/12/10 19:14:17;;;;;;;14.68;4.97;;;5.60;99.90;;;;;;4886804;29;20063;-90
2021/12/10 19:17:22;;;;;;;19.85;8.05;;;5.50;99.90;;;;;;4910316;29;20036;-89
2021/12/10 19:19:57;;;;;;;15.25;4.13;;;5.50;99.90;;;;;;4885492;29;20048;-89
2021/12/10 19:22:33;;;;;;;11.93;4.20;;;6.00;99.90;;;;;;4892024;29;20034;-90
2021/12/10 19:25:19;;;;;;;23.13;6.68;;;5.40;99.90;;;;;;4879513;29;20056;-92